createdAt,value
2022-11-14T00:02:08.286Z,6.54
2022-11-14T00:05:28.247Z,6.61
2022-11-14T00:08:48.530Z,6.68
2022-11-14T00:12:09.749Z,6.68
2022-11-14T00:15:29.881Z,6.71
2022-11-14T00:18:49.702Z,6.71
2022-11-14T00:22:09.529Z,6.72
2022-11-14T00:25:29.519Z,6.77
2022-11-14T00:28:49.509Z,6.77
2022-11-14T00:32:09.373Z,6.77
2022-11-14T00:35:29.211Z,6.75
2022-11-14T00:38:53.372Z,6.76
2022-11-14T00:42:13.448Z,6.79
2022-11-14T00:45:33.185Z,6.81
2022-11-14T00:48:53.035Z,6.78
2022-11-14T00:52:13.002Z,6.81
2022-11-14T00:55:32.764Z,6.83
2022-11-14T00:58:52.673Z,6.84
2022-11-14T01:02:12.495Z,6.84
2022-11-14T01:05:32.417Z,6.81
2022-11-14T01:08:52.652Z,6.77
2022-11-14T01:12:12.608Z,6.83
2022-11-14T01:15:33.532Z,6.77
2022-11-14T01:18:53.488Z,6.79
2022-11-14T01:22:13.504Z,6.77
2022-11-14T01:25:35.055Z,6.75
2022-11-14T01:28:55.051Z,6.76
2022-11-14T01:32:15.136Z,6.70
2022-11-14T01:35:37.188Z,6.67
2022-11-14T01:38:57.181Z,6.71
2022-11-14T01:42:17.798Z,6.71
2022-11-14T01:45:51.071Z,6.60
2022-11-14T01:49:37.060Z,6.56
2022-11-14T01:52:57.148Z,6.63
2022-11-14T01:56:22.733Z,6.65
2022-11-14T01:59:47.369Z,6.65
2022-11-14T02:03:07.569Z,6.67
2022-11-14T02:06:30.727Z,6.64
2022-11-14T02:09:51.740Z,6.63
2022-11-14T02:13:11.896Z,6.63
2022-11-14T02:16:32.063Z,6.59
2022-11-14T02:20:02.196Z,6.63
2022-11-14T02:23:27.687Z,6.65
2022-11-14T02:26:47.598Z,6.61
2022-11-14T02:30:12.442Z,6.70
2022-11-14T02:33:32.679Z,6.70
2022-11-14T02:36:53.335Z,6.68
2022-11-14T02:40:13.381Z,6.60
2022-11-14T02:43:33.436Z,6.57
2022-11-14T02:46:53.499Z,6.56
2022-11-14T02:50:13.465Z,6.50
2022-11-14T02:53:33.652Z,6.52
2022-11-14T02:56:53.393Z,6.45
2022-11-14T03:00:15.289Z,6.40
2022-11-14T03:03:35.386Z,6.20
2022-11-14T03:06:55.341Z,6.13
2022-11-14T03:10:15.633Z,6.23
2022-11-14T03:13:36.503Z,6.22
2022-11-14T03:16:56.531Z,6.19
2022-11-14T03:20:17.363Z,6.20
2022-11-14T03:23:37.517Z,6.14
2022-11-14T03:26:57.454Z,6.17
2022-11-14T03:30:17.829Z,6.10
2022-11-14T03:33:38.360Z,6.14
2022-11-14T03:36:58.346Z,6.08
2022-11-14T03:40:18.540Z,6.02
2022-11-14T03:43:38.440Z,6.07
2022-11-14T03:46:58.320Z,6.10
2022-11-14T03:50:18.185Z,6.14
2022-11-14T03:53:38.008Z,6.11
2022-11-14T03:56:57.880Z,6.06
2022-11-14T04:00:18.265Z,6.09
2022-11-14T04:03:38.082Z,6.17
2022-11-14T04:06:58.041Z,6.13
2022-11-14T04:10:18.348Z,6.14
2022-11-14T04:13:38.288Z,6.16
2022-11-14T04:16:58.202Z,6.16
2022-11-14T04:20:18.153Z,6.17
2022-11-14T04:23:38.101Z,6.19
2022-11-14T04:26:58.122Z,6.22
2022-11-14T04:30:18.268Z,6.21
2022-11-14T04:33:38.120Z,6.23
2022-11-14T04:36:57.983Z,6.21
2022-11-14T04:40:18.028Z,6.29
2022-11-14T04:43:38.072Z,6.29
2022-11-14T04:46:57.945Z,6.26
2022-11-14T04:50:17.915Z,6.25
2022-11-14T04:53:38.083Z,6.24
2022-11-14T04:56:58.030Z,6.29
2022-11-14T05:00:18.169Z,6.23
2022-11-14T05:03:38.141Z,6.22
2022-11-14T05:06:58.261Z,6.09
2022-11-14T05:10:18.236Z,6.09
2022-11-14T05:13:38.014Z,6.01
2022-11-14T05:16:58.254Z,6.01
2022-11-14T05:20:18.309Z,6.03
2022-11-14T05:23:38.202Z,6.04
2022-11-14T05:26:59.041Z,6.00
2022-11-14T05:30:18.984Z,6.02
2022-11-14T05:33:39.454Z,6.04
2022-11-14T05:36:59.307Z,6.01
2022-11-14T05:40:19.316Z,6.05
2022-11-14T05:43:40.401Z,6.04
2022-11-14T05:47:00.289Z,6.00
2022-11-14T05:50:20.107Z,5.98
2022-11-14T05:53:40.423Z,5.94
2022-11-14T05:57:00.342Z,6.00
2022-11-14T06:00:20.193Z,6.00
2022-11-14T06:03:44.832Z,6.03
2022-11-14T06:07:05.062Z,6.10
2022-11-14T06:10:25.635Z,6.10
2022-11-14T06:13:46.203Z,6.16
2022-11-14T06:17:06.017Z,6.18
2022-11-14T06:20:25.951Z,6.15
2022-11-14T06:23:46.172Z,6.21
2022-11-14T06:27:06.385Z,6.23
2022-11-14T06:30:26.641Z,6.18
2022-11-14T06:33:46.996Z,6.16
2022-11-14T06:37:07.055Z,6.18
2022-11-14T06:40:26.824Z,6.27
2022-11-14T06:43:52.845Z,6.11
2022-11-14T06:47:12.751Z,6.10
2022-11-14T06:50:32.613Z,6.10
2022-11-14T06:53:52.556Z,6.10
2022-11-14T06:57:12.729Z,6.03
2022-11-14T07:00:32.684Z,6.07
2022-11-14T07:03:52.896Z,6.07
2022-11-14T07:07:13.184Z,6.09
2022-11-14T07:10:33.700Z,6.13
2022-11-14T07:14:01.146Z,6.13
2022-11-14T07:17:21.897Z,6.11
2022-11-14T07:20:41.589Z,6.13
2022-11-14T07:24:01.616Z,6.13
2022-11-14T07:27:21.615Z,6.20
2022-11-14T07:30:41.828Z,6.20
2022-11-14T07:34:02.248Z,6.22
2022-11-14T07:37:22.479Z,6.26
2022-11-14T07:40:42.204Z,6.39
2022-11-14T07:44:03.059Z,6.36
2022-11-14T07:47:22.832Z,6.44
2022-11-14T07:50:43.364Z,6.46
2022-11-14T07:54:03.529Z,6.59
2022-11-14T07:57:23.411Z,6.70
2022-11-14T08:00:43.212Z,6.75
2022-11-14T08:04:03.139Z,6.81
2022-11-14T08:07:23.057Z,6.96
2022-11-14T08:10:42.830Z,6.93
2022-11-14T08:14:02.777Z,6.99
2022-11-14T08:17:23.799Z,6.94
2022-11-14T08:20:44.635Z,6.98
2022-11-14T08:24:04.712Z,6.99
2022-11-14T08:27:25.609Z,7.12
2022-11-14T08:30:45.809Z,7.10
2022-11-14T08:34:05.517Z,7.18
2022-11-14T08:37:25.305Z,7.19
2022-11-14T08:40:45.191Z,7.31
2022-11-14T08:44:06.037Z,7.32
2022-11-14T08:47:25.914Z,7.46
2022-11-14T08:50:45.760Z,7.55
2022-11-14T08:54:05.793Z,7.72
2022-11-14T08:57:26.168Z,7.80
2022-11-14T09:00:46.121Z,7.78
2022-11-14T09:04:06.211Z,7.82
2022-11-14T09:07:26.794Z,7.94
2022-11-14T09:10:46.759Z,7.97
2022-11-14T09:14:07.152Z,7.99
2022-11-14T09:17:26.994Z,7.98
2022-11-14T09:20:46.819Z,8.09
2022-11-14T09:24:06.881Z,8.03
2022-11-14T09:27:27.464Z,8.07
2022-11-14T09:30:47.608Z,8.11
2022-11-14T09:34:07.419Z,8.14
2022-11-14T09:37:27.317Z,8.14
2022-11-14T09:41:02.807Z,8.26
2022-11-14T09:44:42.281Z,8.35
2022-11-14T09:48:15.967Z,8.46
2022-11-14T09:51:44.751Z,8.55
2022-11-14T09:55:15.317Z,8.52
2022-11-14T09:58:35.256Z,8.53
2022-11-14T10:02:14.317Z,8.59
2022-11-14T10:06:09.203Z,8.73
2022-11-14T10:09:52.828Z,8.78
2022-11-14T10:13:32.090Z,8.92
2022-11-14T10:17:11.232Z,8.96
2022-11-14T10:20:42.069Z,9.03
2022-11-14T10:24:24.551Z,9.06
2022-11-14T10:28:09.536Z,9.24
2022-11-14T10:31:57.880Z,9.27
2022-11-14T10:35:33.845Z,9.42
2022-11-14T10:39:06.023Z,9.60
2022-11-14T10:42:34.849Z,9.50
2022-11-14T10:46:10.016Z,9.44
2022-11-14T10:49:32.466Z,9.59
2022-11-14T10:52:57.662Z,9.62
2022-11-14T10:56:17.954Z,9.71
2022-11-14T10:59:37.653Z,9.77
2022-11-14T11:02:58.027Z,9.77
2022-11-14T11:06:26.549Z,9.92
2022-11-14T11:10:18.272Z,10.12
2022-11-14T11:13:52.879Z,10.19
2022-11-14T11:17:13.038Z,10.27
2022-11-14T11:20:32.870Z,10.30
2022-11-14T11:23:57.212Z,10.39
2022-11-14T11:27:28.912Z,10.41
2022-11-14T11:30:59.316Z,10.43
2022-11-14T11:34:27.956Z,10.49
2022-11-14T11:37:57.094Z,10.50
2022-11-14T11:42:07.712Z,10.53
2022-11-14T11:45:18.642Z,10.58
2022-11-14T11:48:39.687Z,10.57
2022-11-14T11:52:06.167Z,10.59
2022-11-14T11:55:47.983Z,10.65
2022-11-14T11:59:33.848Z,10.65
2022-11-14T12:02:54.551Z,10.65
2022-11-14T12:06:25.243Z,10.65
2022-11-14T12:13:44.900Z,10.58
2022-11-14T12:17:28.454Z,10.63
2022-11-14T12:20:54.520Z,10.74
2022-11-14T12:24:26.416Z,10.73
2022-11-14T12:28:05.339Z,10.77
2022-11-14T12:31:33.615Z,10.87
2022-11-14T12:34:53.973Z,10.86
2022-11-14T12:38:19.333Z,10.89
2022-11-14T12:41:40.511Z,10.88
2022-11-14T12:45:00.823Z,10.94
2022-11-14T12:48:26.885Z,10.95
2022-11-14T12:51:46.713Z,11.03
2022-11-14T12:55:29.839Z,11.16
2022-11-14T12:58:55.808Z,11.14
2022-11-14T13:02:53.075Z,11.09
2022-11-14T13:06:45.548Z,10.96
2022-11-14T13:10:27.705Z,10.98
2022-11-14T13:14:20.281Z,10.96
2022-11-14T13:17:59.134Z,10.74
2022-11-14T13:21:47.577Z,10.65
2022-11-14T13:25:10.485Z,10.60
2022-11-14T13:28:52.807Z,10.56
2022-11-14T13:32:33.288Z,10.45
2022-11-14T13:36:00.759Z,10.50
2022-11-14T13:39:42.433Z,10.44
2022-11-14T13:43:24.557Z,10.46
2022-11-14T13:47:11.791Z,10.21
2022-11-14T13:50:36.654Z,10.27
2022-11-14T13:53:56.783Z,10.22
2022-11-14T13:57:42.231Z,10.16
2022-11-14T14:01:30.293Z,10.14
2022-11-14T14:05:03.589Z,10.21
2022-11-14T14:08:40.888Z,10.27
2022-11-14T14:12:21.214Z,10.27
2022-11-14T14:15:49.023Z,10.31
2022-11-14T14:19:25.494Z,10.46
2022-11-14T14:22:55.140Z,10.40
2022-11-14T14:26:55.464Z,10.48
2022-11-14T14:30:19.595Z,10.38
2022-11-14T14:33:45.154Z,10.48
2022-11-14T14:37:16.715Z,10.39
2022-11-14T14:40:39.344Z,10.30
2022-11-14T14:43:59.865Z,10.34
2022-11-14T14:47:32.407Z,10.41
2022-11-14T14:50:55.108Z,10.25
2022-11-14T14:54:24.507Z,10.16
2022-11-14T14:57:44.509Z,10.13
2022-11-14T15:01:06.193Z,10.11
2022-11-14T15:04:29.936Z,10.11
2022-11-14T15:07:51.300Z,10.16
2022-11-14T15:11:15.075Z,10.16
2022-11-14T15:14:38.647Z,10.21
2022-11-14T15:18:02.395Z,10.35
2022-11-14T15:21:27.100Z,10.54
2022-11-14T15:25:11.637Z,10.55
2022-11-14T15:28:32.121Z,10.51
2022-11-14T15:31:53.836Z,10.43
2022-11-14T15:35:24.929Z,10.43
2022-11-14T15:39:03.489Z,10.48
2022-11-14T15:42:23.567Z,10.49
2022-11-14T15:45:43.421Z,10.40
2022-11-14T15:49:29.818Z,10.47
2022-11-14T15:52:57.598Z,10.53
2022-11-14T15:56:17.899Z,10.52
2022-11-14T15:59:39.487Z,10.49
2022-11-14T16:02:59.499Z,10.41
2022-11-14T16:06:20.033Z,10.31
2022-11-14T16:09:39.940Z,10.32
2022-11-14T16:12:59.827Z,10.37
2022-11-14T16:16:19.588Z,10.48
2022-11-14T16:19:39.590Z,10.45
2022-11-14T16:22:59.440Z,10.42
2022-11-14T16:26:19.284Z,10.35
2022-11-14T16:29:39.166Z,10.39
2022-11-14T16:32:59.096Z,10.39
2022-11-14T16:36:21.098Z,10.41
2022-11-14T16:39:41.286Z,10.33
2022-11-14T16:43:01.319Z,10.37
2022-11-14T16:46:21.559Z,10.40
2022-11-14T16:49:41.756Z,10.37
2022-11-14T16:53:01.701Z,10.29
2022-11-14T16:56:21.456Z,10.25
2022-11-14T16:59:41.729Z,10.32
2022-11-14T17:03:01.652Z,10.53
2022-11-14T17:06:21.683Z,10.77
2022-11-14T17:09:41.779Z,11.01
2022-11-14T17:13:01.918Z,11.11
2022-11-14T17:16:22.516Z,11.19
2022-11-14T17:19:46.202Z,11.14
2022-11-14T17:23:06.316Z,11.07
2022-11-14T17:26:26.256Z,11.01
2022-11-14T17:29:46.600Z,11.08
2022-11-14T17:33:06.461Z,11.11
2022-11-14T17:36:28.349Z,11.17
2022-11-14T17:39:48.279Z,11.16
2022-11-14T17:43:08.260Z,11.19
2022-11-14T17:46:28.992Z,11.08
2022-11-14T17:49:48.977Z,11.03
2022-11-14T17:53:08.796Z,11.14
2022-11-14T17:56:28.809Z,11.18
2022-11-14T17:59:48.697Z,11.27
2022-11-14T18:03:08.886Z,11.31
2022-11-14T18:06:28.943Z,11.28
2022-11-14T18:09:48.714Z,11.32
2022-11-14T18:13:09.290Z,11.31
2022-11-14T18:16:50.562Z,11.38
2022-11-14T18:20:10.194Z,11.41
2022-11-14T18:23:30.349Z,11.41
2022-11-14T18:26:50.529Z,11.44
2022-11-14T18:30:34.688Z,11.44
2022-11-14T18:33:51.371Z,11.43
2022-11-14T18:37:11.484Z,11.44
2022-11-14T18:40:31.214Z,11.41
2022-11-14T18:43:55.311Z,11.39
2022-11-14T18:47:15.643Z,11.39
2022-11-14T18:50:35.901Z,11.38
2022-11-14T18:53:59.029Z,11.29
2022-11-14T18:57:19.092Z,11.22
2022-11-14T19:00:38.840Z,11.21
2022-11-14T19:04:00.931Z,11.15
2022-11-14T19:07:21.154Z,11.11
2022-11-14T19:10:41.092Z,11.09
2022-11-14T19:14:02.773Z,11.10
2022-11-14T19:17:23.799Z,11.07
2022-11-14T19:20:43.929Z,11.03
2022-11-14T19:24:03.960Z,11.03
2022-11-14T19:27:24.105Z,11.03
2022-11-14T19:30:43.990Z,11.01
2022-11-14T19:34:04.980Z,10.95
2022-11-14T19:37:25.461Z,10.86
2022-11-14T19:40:50.713Z,10.82
2022-11-14T19:44:12.428Z,10.74
2022-11-14T19:47:32.460Z,10.77
2022-11-14T19:51:11.090Z,10.73
2022-11-14T19:54:30.934Z,10.76
2022-11-14T19:57:50.736Z,10.77
2022-11-14T20:01:13.211Z,10.71
2022-11-14T20:04:37.716Z,10.70
2022-11-14T20:07:58.024Z,10.59
2022-11-14T20:11:18.517Z,10.59
2022-11-14T20:14:38.811Z,10.61
2022-11-14T20:17:58.679Z,10.63
2022-11-14T20:21:20.767Z,10.69
2022-11-14T20:24:40.814Z,10.72
2022-11-14T20:28:01.451Z,10.76
2022-11-14T20:31:28.228Z,10.77
2022-11-14T20:34:48.266Z,10.74
2022-11-14T20:38:08.042Z,10.74
2022-11-14T20:41:28.107Z,10.76
2022-11-14T20:44:47.898Z,10.80
2022-11-14T20:48:07.810Z,10.71
2022-11-14T20:51:28.191Z,10.62
2022-11-14T20:54:48.093Z,10.61
2022-11-14T20:58:07.916Z,10.63
2022-11-14T21:01:28.431Z,10.64
2022-11-14T21:04:48.548Z,10.65
2022-11-14T21:08:08.693Z,10.65
2022-11-14T21:11:28.507Z,10.70
2022-11-14T21:14:48.464Z,10.74
2022-11-14T21:18:08.283Z,10.78
2022-11-14T21:21:30.515Z,10.80
2022-11-14T21:24:50.415Z,10.82
2022-11-14T21:28:10.279Z,10.80
2022-11-14T21:31:33.796Z,10.85
2022-11-14T21:34:53.733Z,10.85
2022-11-14T21:38:13.655Z,10.90
2022-11-14T21:41:33.343Z,10.89
2022-11-14T21:44:53.205Z,10.91
2022-11-14T21:48:12.955Z,10.92
2022-11-14T21:51:32.919Z,10.91
2022-11-14T21:54:52.701Z,10.93
2022-11-14T21:58:13.039Z,10.90
2022-11-14T22:01:51.732Z,10.91
2022-11-14T22:05:11.689Z,10.94
2022-11-14T22:08:31.887Z,10.95
2022-11-14T22:11:52.062Z,10.99
2022-11-14T22:15:11.982Z,10.97
2022-11-14T22:18:31.968Z,10.93
2022-11-14T22:21:52.233Z,10.94
2022-11-14T22:25:12.283Z,10.97
2022-11-14T22:28:32.245Z,10.94
2022-11-14T22:31:52.881Z,10.94
2022-11-14T22:35:13.000Z,10.91
2022-11-14T22:38:34.935Z,10.88
2022-11-14T22:41:54.945Z,10.81
2022-11-14T22:45:15.131Z,10.73
2022-11-14T22:48:34.983Z,10.67
2022-11-14T22:51:54.856Z,10.61
2022-11-14T22:55:18.053Z,10.57
2022-11-14T22:58:41.212Z,10.55
2022-11-14T23:02:01.270Z,10.58
2022-11-14T23:05:20.972Z,10.48
2022-11-14T23:08:41.273Z,10.46
2022-11-14T23:12:01.320Z,10.46
2022-11-14T23:15:21.675Z,10.48
2022-11-14T23:18:41.661Z,10.46
2022-11-14T23:22:01.645Z,10.42
2022-11-14T23:25:21.837Z,10.42
2022-11-14T23:28:42.695Z,10.45
2022-11-14T23:32:02.872Z,10.46
2022-11-14T23:35:22.736Z,10.48
2022-11-14T23:38:42.527Z,10.44
2022-11-14T23:42:02.384Z,10.44
2022-11-14T23:45:22.169Z,10.42
2022-11-14T23:48:42.316Z,10.43
2022-11-14T23:52:02.452Z,10.47
2022-11-14T23:55:22.449Z,10.45
2022-11-14T23:58:42.688Z,10.40
